Time;durP1;ratioP1;P1;durP2;ratioP2;P2;SDS_P1;SDS_P2;PMS_P1;PMS_P2;Temp;Humidity;BMP_temperature;BMP_pressure;BME280_temperature;BME280_humidity;BME280_pressure;Samples;Min_cycle;Max_cycle;Signal;HPM_P1;HPM_P2
2023/03/15 00:01:17;;;;;;;5.40;2.05;;;2.50;99.90;;;;;;5115187;28;20055;-68
2023/03/15 00:03:44;;;;;;;8.30;2.70;;;2.50;99.90;;;;;;5114660;28;20047;-68
2023/03/15 00:06:13;;;;;;;10.20;2.30;;;2.50;99.90;;;;;;5112817;28;20070;-68
2023/03/15 00:08:40;;;;;;;10.55;3.10;;;2.50;99.90;;;;;;5113652;28;20487;-68
2023/03/15 00:11:07;;;;;;;7.05;2.60;;;2.40;99.90;;;;;;5114581;28;20124;-68
2023/03/15 00:13:35;;;;;;;8.18;2.45;;;2.30;99.90;;;;;;5114132;28;20422;-67
2023/03/15 00:16:03;;;;;;;6.20;2.00;;;2.30;99.90;;;;;;5114014;28;20096;-67
2023/03/15 00:18:30;;;;;;;11.85;2.38;;;2.20;99.90;;;;;;5114187;28;20078;-68
2023/03/15 00:20:57;;;;;;;10.88;2.58;;;2.10;99.90;;;;;;5115103;28;20047;-67
2023/03/15 00:23:24;;;;;;;13.25;2.80;;;2.00;99.90;;;;;;5115135;28;20051;-67
2023/03/15 00:25:52;;;;;;;6.95;2.13;;;1.90;99.90;;;;;;5112994;28;20047;-67
2023/03/15 00:28:19;;;;;;;8.98;2.10;;;1.80;99.90;;;;;;5112453;28;20043;-68
2023/03/15 00:30:48;;;;;;;8.38;2.53;;;1.80;99.90;;;;;;5113984;28;20552;-68
2023/03/15 00:33:15;;;;;;;7.82;1.95;;;1.70;99.90;;;;;;5112652;28;20487;-68
2023/03/15 00:35:44;;;;;;;8.32;2.17;;;1.70;99.90;;;;;;5113416;28;20052;-67
2023/03/15 00:38:12;;;;;;;7.82;2.22;;;1.60;99.90;;;;;;5112940;28;20047;-68
2023/03/15 00:40:39;;;;;;;10.77;2.55;;;1.60;99.90;;;;;;5113334;28;20047;-66
2023/03/15 00:43:06;;;;;;;8.23;2.63;;;1.50;99.90;;;;;;5113592;28;20135;-66
2023/03/15 00:45:33;;;;;;;7.22;2.20;;;1.50;99.90;;;;;;5111540;28;20416;-67
2023/03/15 00:48:01;;;;;;;10.20;2.35;;;1.40;99.90;;;;;;5114515;28;20096;-66
2023/03/15 00:50:28;;;;;;;11.70;2.72;;;1.40;99.90;;;;;;5112381;28;20043;-66
2023/03/15 00:52:55;;;;;;;11.13;3.13;;;1.40;99.90;;;;;;5112612;28;20108;-66
2023/03/15 00:55:22;;;;;;;12.50;3.90;;;1.40;99.90;;;;;;5113290;28;20066;-66
2023/03/15 00:57:49;;;;;;;9.27;1.90;;;1.40;99.90;;;;;;5112680;28;20545;-66
2023/03/15 01:00:22;;;;;;;8.68;2.83;;;1.40;99.90;;;;;;5112582;28;20047;-66
2023/03/15 01:02:49;;;;;;;6.32;1.90;;;1.40;99.90;;;;;;5113124;28;20552;-66
2023/03/15 01:05:18;;;;;;;7.07;2.63;;;1.50;99.90;;;;;;5112140;28;20054;-67
2023/03/15 01:07:45;;;;;;;12.00;2.17;;;1.70;99.90;;;;;;5111860;28;20503;-67
2023/03/15 01:10:14;;;;;;;11.55;2.75;;;1.70;99.90;;;;;;5112839;28;20142;-67
2023/03/15 01:12:41;;;;;;;7.00;1.83;;;1.80;99.90;;;;;;5113895;28;20047;-67
2023/03/15 01:15:11;;;;;;;12.18;2.38;;;1.80;99.90;;;;;;5111441;28;20043;-67
2023/03/15 01:17:37;;;;;;;11.85;1.90;;;1.80;99.90;;;;;;5112496;28;20058;-66
2023/03/15 01:20:06;;;;;;;9.57;2.20;;;1.80;99.90;;;;;;5112128;28;20056;-66
2023/03/15 01:22:35;;;;;;;11.27;2.35;;;1.70;99.90;;;;;;5112517;28;20483;-66
2023/03/15 01:25:02;;;;;;;10.57;1.88;;;1.60;99.90;;;;;;5112691;28;20116;-66
2023/03/15 01:27:28;;;;;;;9.27;2.28;;;1.60;99.90;;;;;;5112811;28;20062;-66
2023/03/15 01:29:55;;;;;;;9.07;1.60;;;1.50;99.90;;;;;;5113351;28;20039;-66
2023/03/15 01:32:22;;;;;;;9.88;1.80;;;1.40;99.90;;;;;;5112158;28;20043;-67
2023/03/15 01:34:49;;;;;;;5.43;1.67;;;1.40;99.90;;;;;;5111534;28;20059;-66
2023/03/15 01:37:16;;;;;;;7.00;1.70;;;1.50;99.90;;;;;;5113164;28;20044;-67
2023/03/15 01:39:44;;;;;;;7.80;2.63;;;1.30;99.90;;;;;;5111854;28;20063;-67
2023/03/15 01:42:11;;;;;;;7.20;2.13;;;1.30;99.90;;;;;;5112861;28;20096;-67
2023/03/15 01:44:53;;;;;;;6.40;2.30;;;1.20;99.90;;;;;;5112187;28;20058;-67
2023/03/15 01:47:20;;;;;;;7.65;1.90;;;1.20;99.90;;;;;;5113107;28;20055;-67
2023/03/15 01:49:52;;;;;;;7.15;2.13;;;1.10;99.90;;;;;;5111646;28;20043;-67
2023/03/15 01:52:22;;;;;;;8.68;2.53;;;1.10;99.90;;;;;;5112068;28;20050;-67
2023/03/15 01:54:54;;;;;;;7.07;2.50;;;1.00;99.90;;;;;;5112127;28;20100;-67
2023/03/15 01:57:25;;;;;;;5.95;2.70;;;0.90;99.90;;;;;;5112389;28;20043;-66
2023/03/15 01:59:56;;;;;;;10.50;2.78;;;0.90;99.90;;;;;;5109748;28;20076;-67
2023/03/15 02:02:25;;;;;;;6.97;2.30;;;0.80;99.90;;;;;;5111137;28;20437;-68
2023/03/15 02:04:56;;;;;;;5.93;1.65;;;0.80;99.90;;;;;;5111782;28;20484;-66
2023/03/15 02:07:26;;;;;;;6.68;1.83;;;0.70;99.90;;;;;;5144193;27;20051;-67
2023/03/15 02:10:01;;;;;;;11.15;2.75;;;0.60;99.90;;;;;;5111139;28;20078;-67
2023/03/15 02:12:31;;;;;;;7.85;2.20;;;0.60;99.90;;;;;;5111722;28;20058;-67
2023/03/15 02:15:00;;;;;;;10.77;1.83;;;0.60;99.90;;;;;;5112158;28;20415;-66
2023/03/15 02:17:33;;;;;;;6.22;1.90;;;0.50;99.90;;;;;;5110823;28;20047;-67
2023/03/15 02:20:12;;;;;;;7.03;2.00;;;0.50;99.90;;;;;;5110991;28;20051;-67
2023/03/15 02:22:47;;;;;;;11.18;2.15;;;0.40;99.90;;;;;;5110012;28;20499;-67
2023/03/15 02:25:23;;;;;;;15.35;1.95;;;0.40;99.90;;;;;;5109398;28;20126;-67
2023/03/15 02:27:51;;;;;;;6.72;2.20;;;0.40;99.90;;;;;;5144296;27;20414;-67
2023/03/15 02:30:19;;;;;;;8.90;1.83;;;0.40;99.90;;;;;;5108782;28;20051;-66
2023/03/15 02:32:46;;;;;;;7.50;1.98;;;0.40;99.90;;;;;;5111453;28;20055;-67
2023/03/15 02:35:13;;;;;;;8.80;2.10;;;0.40;99.90;;;;;;5109230;28;20043;-67
2023/03/15 02:37:44;;;;;;;12.25;2.63;;;0.30;99.90;;;;;;5111802;28;20104;-68
2023/03/15 02:40:18;;;;;;;9.38;2.03;;;0.30;99.90;;;;;;5109936;28;20075;-67
2023/03/15 02:42:46;;;;;;;8.40;1.98;;;0.30;99.90;;;;;;5109596;28;20051;-68
2023/03/15 02:45:15;;;;;;;9.45;2.25;;;0.40;99.90;;;;;;5110676;28;20055;-66
2023/03/15 02:47:42;;;;;;;13.20;2.10;;;0.40;99.90;;;;;;5110770;28;20580;-66
2023/03/15 02:50:11;;;;;;;7.10;1.65;;;0.40;99.90;;;;;;5111313;28;20097;-66
2023/03/15 02:52:37;;;;;;;6.65;1.77;;;0.40;99.90;;;;;;5110643;28;20047;-66
2023/03/15 02:55:05;;;;;;;5.60;1.90;;;0.50;99.90;;;;;;5111336;28;20055;-67
2023/03/15 02:57:32;;;;;;;3.72;1.40;;;0.40;99.90;;;;;;5112124;28;20092;-67
2023/03/15 03:00:05;;;;;;;5.90;1.50;;;0.40;99.90;;;;;;5110736;28;20112;-67
2023/03/15 03:02:33;;;;;;;3.78;1.90;;;0.40;99.90;;;;;;5112225;28;20052;-66
2023/03/15 03:05:00;;;;;;;7.03;2.35;;;0.40;99.90;;;;;;5111049;28;20407;-66
2023/03/15 03:07:27;;;;;;;4.35;1.83;;;0.40;99.90;;;;;;5108020;28;20411;-67
2023/03/15 03:09:54;;;;;;;7.85;2.00;;;0.30;99.90;;;;;;5110718;28;20422;-67
2023/03/15 03:12:21;;;;;;;6.75;2.55;;;0.40;99.90;;;;;;5112088;28;20080;-67
2023/03/15 03:14:48;;;;;;;7.60;1.70;;;0.30;99.90;;;;;;5112009;28;20523;-66
2023/03/15 03:17:15;;;;;;;4.75;1.48;;;0.30;99.90;;;;;;5110613;28;20055;-67
2023/03/15 03:19:43;;;;;;;11.68;2.17;;;0.30;99.90;;;;;;5111442;28;20055;-67
2023/03/15 03:22:12;;;;;;;7.03;1.88;;;0.30;99.90;;;;;;5112188;28;20044;-67
2023/03/15 03:24:44;;;;;;;6.55;2.03;;;0.40;99.90;;;;;;5112175;28;20043;-67
2023/03/15 03:27:13;;;;;;;11.15;2.00;;;0.30;99.90;;;;;;5111819;28;20043;-67
2023/03/15 03:29:41;;;;;;;3.50;1.70;;;0.40;99.90;;;;;;5115819;28;20142;-66
2023/03/15 03:32:09;;;;;;;6.05;2.05;;;0.40;99.90;;;;;;5115588;28;20043;-66
2023/03/15 03:34:36;;;;;;;4.90;1.70;;;0.40;99.90;;;;;;5115063;28;20048;-67
2023/03/15 03:37:04;;;;;;;3.80;1.50;;;0.40;99.90;;;;;;5114659;28;20044;-67
2023/03/15 03:39:31;;;;;;;4.15;1.90;;;0.40;99.90;;;;;;5114515;28;20055;-67
2023/03/15 03:41:58;;;;;;;7.18;1.88;;;0.50;99.90;;;;;;5113679;28;20043;-67
2023/03/15 03:44:25;;;;;;;9.82;2.08;;;0.40;99.90;;;;;;5115305;28;20117;-67
2023/03/15 03:46:52;;;;;;;12.20;2.78;;;0.40;99.90;;;;;;5114519;28;20047;-67
2023/03/15 03:49:19;;;;;;;5.93;1.83;;;0.40;99.90;;;;;;5113436;28;20051;-66
2023/03/15 03:51:46;;;;;;;3.75;1.85;;;0.40;99.90;;;;;;5114267;28;20105;-67
2023/03/15 03:54:15;;;;;;;7.47;2.53;;;0.30;99.90;;;;;;5114196;28;20055;-67
2023/03/15 03:56:41;;;;;;;7.50;2.17;;;0.30;99.90;;;;;;5114816;28;20043;-67
2023/03/15 03:59:09;;;;;;;7.88;1.85;;;0.30;99.90;;;;;;5114868;28;20050;-66
2023/03/15 04:01:36;;;;;;;7.35;1.80;;;0.20;99.90;;;;;;5113539;28;20048;-66
2023/03/15 04:04:03;;;;;;;12.43;2.50;;;0.20;99.90;;;;;;5113814;28;20101;-66
2023/03/15 04:06:31;;;;;;;6.78;2.00;;;0.10;99.90;;;;;;5115293;28;20043;-66
2023/03/15 04:08:58;;;;;;;8.70;1.67;;;0.10;99.90;;;;;;5110970;28;20040;-67
2023/03/15 04:11:26;;;;;;;5.88;2.15;;;0.10;99.90;;;;;;5115069;28;20039;-68
2023/03/15 04:13:53;;;;;;;4.40;1.52;;;0.30;99.90;;;;;;5112749;28;20554;-67
2023/03/15 04:16:20;;;;;;;6.80;1.50;;;0.10;99.90;;;;;;5114517;28;20044;-68
2023/03/15 04:18:47;;;;;;;6.95;2.10;;;0.00;99.90;;;;;;5113621;28;20104;-67
2023/03/15 04:21:14;;;;;;;6.82;2.00;;;0.00;99.90;;;;;;5114698;28;20116;-67
2023/03/15 04:23:41;;;;;;;8.55;2.13;;;0.00;99.90;;;;;;5114246;28;20445;-67
2023/03/15 04:26:08;;;;;;;7.68;2.20;;;0.20;99.90;;;;;;5113296;28;20051;-67
2023/03/15 04:28:37;;;;;;;7.43;2.40;;;0.00;99.90;;;;;;5113101;28;20040;-67
2023/03/15 04:31:09;;;;;;;6.32;2.17;;;0.00;99.90;;;;;;5112951;28;20043;-66
2023/03/15 04:33:36;;;;;;;6.85;2.00;;;-0.10;99.90;;;;;;5113273;28;20055;-66
2023/03/15 04:36:03;;;;;;;3.33;1.38;;;0.00;99.90;;;;;;5108750;28;20415;-66
2023/03/15 04:38:31;;;;;;;5.05;1.42;;;0.00;99.90;;;;;;5111239;28;20048;-66
2023/03/15 04:40:58;;;;;;;6.85;1.70;;;0.00;99.90;;;;;;5111782;28;20051;-66
2023/03/15 04:43:24;;;;;;;6.57;1.80;;;-0.10;99.90;;;;;;5114023;28;20058;-66
2023/03/15 04:45:53;;;;;;;3.88;1.60;;;-0.10;99.90;;;;;;5111478;28;20051;-66
2023/03/15 04:48:20;;;;;;;6.22;1.50;;;-0.10;99.90;;;;;;5113560;28;20047;-66
2023/03/15 04:50:46;;;;;;;6.10;1.65;;;-0.20;99.90;;;;;;5112547;28;20056;-66
2023/03/15 04:53:13;;;;;;;9.07;2.40;;;-0.30;99.90;;;;;;5111231;28;20064;-66
2023/03/15 04:55:40;;;;;;;8.00;2.03;;;-0.20;99.90;;;;;;5113598;28;20043;-66
2023/03/15 04:58:07;;;;;;;4.88;1.73;;;-0.30;99.90;;;;;;5111488;28;20043;-65
2023/03/15 05:00:34;;;;;;;4.78;1.55;;;-0.30;99.90;;;;;;5112234;28;20071;-66
2023/03/15 05:03:02;;;;;;;3.00;1.58;;;-0.30;99.90;;;;;;5113411;28;20051;-66
2023/03/15 05:05:32;;;;;;;5.18;1.45;;;-0.30;99.90;;;;;;5110478;28;20415;-65
2023/03/15 05:07:59;;;;;;;2.85;1.33;;;-0.40;99.90;;;;;;5113168;28;20043;-66
2023/03/15 05:10:28;;;;;;;4.20;1.30;;;-0.40;99.90;;;;;;5110933;28;20043;-66
2023/03/15 05:12:55;;;;;;;2.00;1.20;;;-0.40;99.90;;;;;;5111261;28;20055;-66
2023/03/15 05:15:22;;;;;;;5.13;1.52;;;-0.40;99.90;;;;;;5112496;28;20043;-66
2023/03/15 05:17:53;;;;;;;7.03;2.05;;;-0.40;99.90;;;;;;5111269;28;20499;-67
2023/03/15 05:20:22;;;;;;;3.72;1.40;;;-0.30;99.90;;;;;;5111687;28;20043;-66
2023/03/15 05:22:51;;;;;;;4.13;1.30;;;-0.30;99.90;;;;;;5112623;27;20502;-66
2023/03/15 05:25:19;;;;;;;4.60;1.50;;;-0.40;99.90;;;;;;5112668;28;20130;-67
2023/03/15 05:27:46;;;;;;;7.03;1.70;;;-0.40;99.90;;;;;;5111244;28;20043;-66
2023/03/15 05:30:15;;;;;;;3.80;1.38;;;-0.40;99.90;;;;;;5110466;28;20047;-66
2023/03/15 05:32:43;;;;;;;8.05;1.80;;;-0.40;99.90;;;;;;5112335;28;20119;-66
2023/03/15 05:35:11;;;;;;;7.15;1.80;;;-0.30;99.90;;;;;;5110466;28;20047;-67
2023/03/15 05:37:41;;;;;;;7.28;1.75;;;-0.30;99.90;;;;;;5111065;28;20055;-67
2023/03/15 05:40:10;;;;;;;6.63;2.20;;;-0.20;99.90;;;;;;5111567;28;20036;-66
2023/03/15 05:42:37;;;;;;;8.13;1.90;;;-0.30;99.90;;;;;;5112163;28;20300;-66
2023/03/15 05:45:04;;;;;;;10.73;1.85;;;-0.30;99.90;;;;;;5109810;28;20450;-67
2023/03/15 05:47:31;;;;;;;7.55;2.05;;;-0.30;99.90;;;;;;5110801;28;20487;-67
2023/03/15 05:49:58;;;;;;;4.70;1.77;;;-0.20;99.90;;;;;;5112020;28;20044;-67
2023/03/15 05:52:25;;;;;;;6.05;1.63;;;-0.20;99.90;;;;;;5112605;28;20048;-66
2023/03/15 05:54:53;;;;;;;7.30;1.63;;;0.00;99.90;;;;;;5111359;28;20043;-67
2023/03/15 05:57:20;;;;;;;9.38;1.90;;;0.10;99.90;;;;;;5111245;28;20056;-65
2023/03/15 05:59:47;;;;;;;6.22;2.00;;;0.20;99.90;;;;;;5111717;28;20124;-66
2023/03/15 06:02:14;;;;;;;7.18;1.75;;;0.30;99.90;;;;;;5110478;28;20556;-66
2023/03/15 06:04:41;;;;;;;10.90;2.58;;;0.50;99.90;;;;;;5110710;28;20064;-66
2023/03/15 06:07:08;;;;;;;5.55;1.98;;;0.30;99.90;;;;;;5112058;28;20059;-66
2023/03/15 06:09:35;;;;;;;11.50;2.25;;;0.40;99.90;;;;;;5110116;28;20551;-66
2023/03/15 06:12:04;;;;;;;10.35;2.20;;;0.30;99.90;;;;;;5110628;28;20054;-66
2023/03/15 06:14:30;;;;;;;8.95;3.28;;;0.30;99.90;;;;;;5110321;28;20510;-66
2023/03/15 06:16:57;;;;;;;6.40;1.63;;;0.30;99.90;;;;;;5111060;28;20043;-66
2023/03/15 06:19:24;;;;;;;10.20;2.30;;;0.20;99.90;;;;;;5109722;28;21235;-66
2023/03/15 06:21:51;;;;;;;10.10;2.25;;;0.30;99.90;;;;;;5110415;28;20043;-67
2023/03/15 06:24:18;;;;;;;8.68;2.03;;;0.20;99.90;;;;;;5110577;28;20096;-67
2023/03/15 06:26:45;;;;;;;6.55;1.73;;;0.30;99.90;;;;;;5110222;28;20047;-68
2023/03/15 06:29:13;;;;;;;9.32;2.10;;;0.30;99.90;;;;;;5110112;28;20570;-67
2023/03/15 06:31:40;;;;;;;4.47;1.88;;;0.30;99.90;;;;;;5111173;28;20115;-67
2023/03/15 06:34:07;;;;;;;7.82;2.33;;;0.40;99.90;;;;;;5110286;28;20100;-67
2023/03/15 06:36:35;;;;;;;8.70;2.00;;;0.40;99.90;;;;;;5110915;28;20056;-65
2023/03/15 06:39:02;;;;;;;8.20;2.50;;;0.50;99.90;;;;;;5110104;28;20150;-66
2023/03/15 06:41:31;;;;;;;7.10;2.30;;;0.50;99.90;;;;;;5111233;28;20565;-66
2023/03/15 06:43:58;;;;;;;6.43;2.00;;;0.60;99.90;;;;;;5109239;28;20053;-66
2023/03/15 06:46:26;;;;;;;6.47;1.77;;;0.70;99.90;;;;;;5110638;28;20051;-66
2023/03/15 06:48:53;;;;;;;5.75;1.90;;;0.70;99.90;;;;;;5109895;28;20047;-66
2023/03/15 06:51:20;;;;;;;5.82;1.83;;;0.80;99.90;;;;;;5109462;28;20055;-65
2023/03/15 06:53:47;;;;;;;8.60;1.77;;;0.90;99.90;;;;;;5109902;28;20097;-65
2023/03/15 06:56:13;;;;;;;3.60;2.17;;;0.90;99.90;;;;;;5110635;28;20108;-66
2023/03/15 06:58:40;;;;;;;8.27;2.10;;;1.20;99.90;;;;;;5109530;28;20438;-65
2023/03/15 07:01:07;;;;;;;6.47;1.60;;;1.50;99.90;;;;;;5109774;28;20093;-67
2023/03/15 07:03:36;;;;;;;3.28;1.40;;;1.90;99.90;;;;;;5114333;28;20056;-65
2023/03/15 07:06:03;;;;;;;7.22;2.17;;;2.20;99.90;;;;;;5114029;28;20051;-65
2023/03/15 07:08:30;;;;;;;3.97;1.73;;;2.50;99.90;;;;;;5114109;28;20043;-65
2023/03/15 07:10:57;;;;;;;9.65;2.20;;;2.80;99.90;;;;;;5113139;28;20517;-65
2023/03/15 07:13:24;;;;;;;7.40;1.88;;;3.30;99.90;;;;;;5114345;28;20044;-65
2023/03/15 07:15:55;;;;;;;4.68;2.03;;;3.80;99.90;;;;;;5113275;28;20467;-66
2023/03/15 07:18:21;;;;;;;;;;;4.40;99.90;;;;;;5114146;28;20101;-66
2023/03/15 07:20:55;;;;;;;3.63;1.50;;;5.10;99.90;;;;;;5114351;28;19923;-66
2023/03/15 07:23:22;;;;;;;6.40;2.10;;;6.00;99.90;;;;;;5113467;28;20052;-66
2023/03/15 07:25:49;;;;;;;3.70;2.00;;;6.90;99.90;;;;;;5113454;28;20062;-66
2023/03/15 07:28:16;;;;;;;5.80;1.70;;;7.70;99.90;;;;;;5110500;28;20093;-66
2023/03/15 07:30:51;;;;;;;5.50;2.17;;;8.60;99.90;;;;;;5113799;28;20047;-66
2023/03/15 07:33:21;;;;;;;4.32;1.90;;;9.10;99.90;;;;;;5112486;28;20130;-66
2023/03/15 07:35:48;;;;;;;6.88;1.67;;;9.40;99.90;;;;;;5114891;28;20039;-66
2023/03/15 07:38:16;;;;;;;11.23;2.28;;;10.20;99.90;;;;;;5115113;27;20051;-66
2023/03/15 07:40:43;;;;;;;5.28;1.95;;;10.50;99.90;;;;;;5112535;28;20437;-67
2023/03/15 07:43:10;;;;;;;4.43;1.95;;;11.00;99.90;;;;;;5113903;28;20064;-67
2023/03/15 07:45:37;;;;;;;8.27;2.53;;;11.40;99.90;;;;;;5114051;28;20453;-67
2023/03/15 07:48:04;;;;;;;7.05;1.70;;;11.30;99.90;;;;;;5114357;28;20372;-67
2023/03/15 07:50:31;;;;;;;4.65;1.40;;;11.80;99.90;;;;;;5113690;28;20043;-67
2023/03/15 07:52:58;;;;;;;7.15;1.90;;;12.50;99.90;;;;;;5113600;28;20052;-67
2023/03/15 07:55:26;;;;;;;8.10;2.40;;;12.40;99.90;;;;;;5114702;27;20464;-67
2023/03/15 07:57:53;;;;;;;5.63;2.05;;;12.90;99.90;;;;;;5113942;28;20100;-68
2023/03/15 08:00:21;;;;;;;7.93;1.80;;;12.20;99.90;;;;;;5115189;28;20115;-67
2023/03/15 08:02:49;;;;;;;7.07;1.90;;;12.60;99.90;;;;;;5111182;28;20053;-67
2023/03/15 08:05:17;;;;;;;6.85;1.83;;;12.80;99.90;;;;;;5113579;28;20495;-67
2023/03/15 08:07:45;;;;;;;9.10;1.98;;;12.80;99.10;;;;;;5114842;28;20131;-68
2023/03/15 08:10:12;;;;;;;10.10;2.28;;;12.60;97.60;;;;;;5113235;28;20166;-68
2023/03/15 08:12:41;;;;;;;6.75;2.20;;;13.10;99.90;;;;;;5114470;28;20052;-68
2023/03/15 08:15:10;;;;;;;8.00;2.08;;;12.60;98.50;;;;;;5112330;28;20057;-67
2023/03/15 08:17:38;;;;;;;6.40;2.10;;;13.00;97.50;;;;;;5113058;28;20126;-67
2023/03/15 08:20:08;;;;;;;7.10;1.92;;;13.40;97.70;;;;;;5114802;28;20461;-68
2023/03/15 08:22:35;;;;;;;5.18;1.75;;;13.10;98.00;;;;;;5112287;28;20148;-68
2023/03/15 08:25:02;;;;;;;7.30;2.15;;;13.30;98.50;;;;;;5113413;28;20062;-68
2023/03/15 08:27:29;;;;;;;9.15;2.47;;;13.30;97.00;;;;;;5111957;28;20357;-68
2023/03/15 08:29:58;;;;;;;7.07;1.80;;;13.50;98.00;;;;;;5112322;28;20047;-68
2023/03/15 08:32:25;;;;;;;7.47;1.83;;;14.00;97.20;;;;;;5108573;28;20066;-68
2023/03/15 08:34:52;;;;;;;10.05;2.08;;;13.80;95.20;;;;;;5111774;28;20052;-68
2023/03/15 08:37:19;;;;;;;7.60;1.95;;;13.60;95.40;;;;;;5111701;28;20079;-68
2023/03/15 08:39:46;;;;;;;6.18;1.90;;;14.20;95.80;;;;;;5112834;28;20610;-68
2023/03/15 08:42:13;;;;;;;8.95;2.17;;;14.20;94.20;;;;;;5112852;28;20101;-69
2023/03/15 08:44:40;;;;;;;4.47;1.95;;;14.20;94.40;;;;;;5110853;28;20052;-69
2023/03/15 08:47:09;;;;;;;4.95;1.60;;;14.70;93.20;;;;;;5111566;28;20051;-68
2023/03/15 08:49:36;;;;;;;3.45;1.35;;;14.90;92.60;;;;;;5112600;28;20396;-68
2023/03/15 08:52:03;;;;;;;6.72;1.88;;;15.60;92.10;;;;;;5111266;28;20088;-69
2023/03/15 08:54:30;;;;;;;4.07;1.33;;;15.30;88.30;;;;;;5112683;28;20407;-68
2023/03/15 08:56:57;;;;;;;5.15;1.40;;;14.50;87.00;;;;;;5111639;28;20131;-68
2023/03/15 08:59:24;;;;;;;4.55;1.63;;;15.20;90.50;;;;;;5112325;28;20437;-68
2023/03/15 09:01:52;;;;;;;4.43;1.40;;;15.20;88.70;;;;;;5111595;28;20433;-68
2023/03/15 09:04:20;;;;;;;6.97;1.63;;;15.80;88.80;;;;;;5110669;28;20047;-67
2023/03/15 09:06:47;;;;;;;5.05;1.73;;;15.70;83.60;;;;;;5112406;28;20135;-67
2023/03/15 09:09:16;;;;;;;8.68;1.90;;;15.90;84.40;;;;;;5112328;28;20039;-67
2023/03/15 09:11:43;;;;;;;6.53;1.92;;;16.40;82.90;;;;;;5110244;28;20074;-68
2023/03/15 09:14:10;;;;;;;6.55;1.92;;;16.30;78.90;;;;;;5110542;28;20043;-68
2023/03/15 09:16:36;;;;;;;5.03;1.50;;;15.80;79.50;;;;;;5112021;28;20043;-68
2023/03/15 09:19:04;;;;;;;4.75;1.40;;;16.00;77.20;;;;;;5110620;28;20054;-68
2023/03/15 09:21:32;;;;;;;4.32;1.40;;;15.70;79.10;;;;;;5112375;28;20047;-68
2023/03/15 09:23:59;;;;;;;4.32;1.48;;;15.90;78.80;;;;;;5111127;28;20449;-68
2023/03/15 09:26:26;;;;;;;3.97;1.60;;;15.50;78.40;;;;;;5109749;28;20048;-68
2023/03/15 09:28:53;;;;;;;5.57;1.85;;;15.40;77.60;;;;;;5111308;28;20500;-67
2023/03/15 09:31:20;;;;;;;5.50;1.60;;;16.00;78.60;;;;;;5111546;28;20040;-68
2023/03/15 09:33:47;;;;;;;4.38;1.42;;;16.10;77.80;;;;;;5111253;28;20047;-68
2023/03/15 09:36:14;;;;;;;4.85;1.83;;;16.40;79.10;;;;;;5111356;28;20096;-67
2023/03/15 09:38:42;;;;;;;4.35;1.60;;;16.50;76.40;;;;;;5110648;28;20047;-68
2023/03/15 09:41:18;;;;;;;7.47;1.70;;;17.10;77.00;;;;;;5112018;28;20396;-67
2023/03/15 09:44:10;;;;;;;5.45;1.70;;;16.20;72.30;;;;;;5144721;27;20121;-68
2023/03/15 09:46:43;;;;;;;5.10;1.85;;;16.50;74.10;;;;;;5109612;28;20471;-68
2023/03/15 09:49:15;;;;;;;4.82;1.20;;;16.50;72.40;;;;;;5110403;28;20101;-68
2023/03/15 09:51:47;;;;;;;9.60;1.55;;;16.30;71.00;;;;;;5108638;28;20043;-67
2023/03/15 09:54:18;;;;;;;5.47;1.95;;;17.20;72.40;;;;;;5110462;28;20126;-68
2023/03/15 09:56:53;;;;;;;4.00;1.77;;;17.20;70.80;;;;;;5111279;28;20048;-68
2023/03/15 09:59:21;;;;;;;4.25;1.73;;;16.60;69.20;;;;;;5110651;28;20104;-68
2023/03/15 10:01:51;;;;;;;6.25;1.40;;;17.20;71.00;;;;;;5110307;28;20044;-68
2023/03/15 10:04:26;;;;;;;4.78;1.85;;;17.50;68.00;;;;;;5111038;28;20051;-68
2023/03/15 10:06:55;;;;;;;5.40;1.77;;;17.20;68.50;;;;;;5108541;28;20048;-68
2023/03/15 10:09:26;;;;;;;6.00;1.90;;;17.50;70.40;;;;;;5102927;27;20051;-67
2023/03/15 10:12:02;;;;;;;6.63;1.92;;;17.70;67.30;;;;;;5110427;28;20139;-67
2023/03/15 10:14:43;;;;;;;5.72;1.83;;;17.10;66.70;;;;;;5107996;28;20126;-68
2023/03/15 10:17:12;;;;;;;6.22;1.80;;;17.50;68.20;;;;;;5109583;28;20130;-67
2023/03/15 10:19:47;;;;;;;7.17;1.90;;;17.40;67.80;;;;;;5108227;28;20052;-67
2023/03/15 10:22:23;;;;;;;5.13;1.58;;;17.00;69.30;;;;;;5103872;28;20051;-67
2023/03/15 10:24:56;;;;;;;3.03;1.40;;;17.40;70.30;;;;;;5106579;28;20051;-67
2023/03/15 10:27:32;;;;;;;7.82;2.00;;;16.90;70.40;;;;;;5141654;27;20112;-67
2023/03/15 10:29:59;;;;;;;3.72;1.45;;;16.00;70.20;;;;;;5104357;28;20503;-67
2023/03/15 10:32:30;;;;;;;6.38;1.50;;;16.80;70.40;;;;;;5107388;28;20047;-66
2023/03/15 10:35:01;;;;;;;4.38;1.60;;;17.90;67.80;;;;;;5108290;28;20113;-67
2023/03/15 10:37:28;;;;;;;5.32;1.55;;;17.10;67.80;;;;;;5088276;28;20047;-66
2023/03/15 10:39:59;;;;;;;7.20;1.90;;;16.60;69.30;;;;;;5102322;28;20140;-67
2023/03/15 10:42:28;;;;;;;7.40;1.63;;;16.60;69.20;;;;;;5106779;28;20048;-68
2023/03/15 10:44:55;;;;;;;7.83;2.00;;;16.50;70.50;;;;;;5105786;28;20046;-67
2023/03/15 10:47:23;;;;;;;6.65;1.92;;;15.50;69.20;;;;;;5107271;28;20188;-67
2023/03/15 10:49:54;;;;;;;5.15;1.60;;;15.30;68.80;;;;;;5109377;28;20055;-67
2023/03/15 10:52:28;;;;;;;5.50;1.60;;;15.00;72.70;;;;;;5105396;28;20055;-67
2023/03/15 10:54:56;;;;;;;4.47;1.50;;;15.00;71.00;;;;;;5108046;28;20059;-67
2023/03/15 10:57:27;;;;;;;5.43;1.27;;;15.30;71.70;;;;;;5104600;28;20097;-67
2023/03/15 10:59:58;;;;;;;5.68;1.63;;;15.00;73.70;;;;;;5105251;28;20056;-66
2023/03/15 11:02:26;;;;;;;5.68;1.58;;;16.00;73.20;;;;;;5103234;28;20059;-66
2023/03/15 11:05:02;;;;;;;3.85;1.50;;;16.70;71.70;;;;;;5107188;28;20093;-66
2023/03/15 11:07:29;;;;;;;5.43;1.70;;;16.80;70.40;;;;;;5107474;28;20050;-66
2023/03/15 11:10:01;;;;;;;4.18;1.30;;;16.90;69.60;;;;;;5107168;28;20475;-67
2023/03/15 11:12:30;;;;;;;4.05;1.60;;;17.00;64.90;;;;;;5108134;28;20093;-67
2023/03/15 11:15:00;;;;;;;6.32;1.40;;;16.80;65.10;;;;;;5108559;28;20146;-67
2023/03/15 11:17:30;;;;;;;5.22;1.48;;;17.30;67.50;;;;;;5105586;28;20048;-68
2023/03/15 11:20:09;;;;;;;6.10;1.67;;;16.90;66.70;;;;;;5104208;28;20059;-68
2023/03/15 11:22:36;;;;;;;5.57;1.60;;;16.40;69.40;;;;;;5108329;28;20126;-67
2023/03/15 11:25:04;;;;;;;3.92;2.15;;;16.40;68.90;;;;;;5103627;28;20051;-67
2023/03/15 11:27:31;;;;;;;7.88;1.60;;;16.70;68.40;;;;;;5103033;28;20126;-67
2023/03/15 11:30:01;;;;;;;5.95;1.67;;;15.60;67.10;;;;;;5107225;28;20138;-66
2023/03/15 11:32:31;;;;;;;9.07;1.98;;;15.10;69.70;;;;;;5105144;28;20407;-67
2023/03/15 11:35:04;;;;;;;4.72;1.63;;;13.90;72.00;;;;;;5108330;28;20054;-67
2023/03/15 11:37:38;;;;;;;6.78;1.70;;;14.30;73.30;;;;;;5106789;28;20135;-67
2023/03/15 11:40:15;;;;;;;8.15;1.65;;;15.00;69.70;;;;;;5105618;28;20117;-67
2023/03/15 11:42:46;;;;;;;4.90;1.70;;;15.40;69.10;;;;;;5102821;28;20076;-67
2023/03/15 11:45:19;;;;;;;6.57;1.50;;;15.90;69.30;;;;;;5108721;28;20040;-67
2023/03/15 11:47:53;;;;;;;3.92;1.63;;;16.40;65.90;;;;;;5105444;28;20085;-66
2023/03/15 11:50:19;;;;;;;5.03;1.42;;;17.20;64.60;;;;;;5111135;28;20047;-67
2023/03/15 11:52:49;;;;;;;4.80;1.60;;;17.60;65.10;;;;;;5113002;27;20115;-68
2023/03/15 11:55:20;;;;;;;5.65;1.92;;;18.00;64.40;;;;;;5110779;28;20055;-67
2023/03/15 11:57:48;;;;;;;8.90;1.90;;;18.10;63.10;;;;;;5110583;28;20055;-67
2023/03/15 12:00:33;;;;;;;6.05;1.90;;;17.80;62.70;;;;;;5110775;28;20051;-67
2023/03/15 12:03:37;;;;;;;5.13;1.42;;;18.60;62.00;;;;;;5106602;28;20557;-66
2023/03/15 12:06:21;;;;;;;5.68;1.98;;;18.90;61.90;;;;;;5107400;28;20138;-67
2023/03/15 12:08:50;;;;;;;8.63;1.45;;;18.60;62.70;;;;;;5127010;27;20403;-67
2023/03/15 12:11:39;;;;;;;3.15;1.25;;;18.90;59.60;;;;;;5112953;28;20040;-67
2023/03/15 12:14:25;;;;;;;4.10;1.33;;;19.00;59.80;;;;;;5103425;28;20503;-65
2023/03/15 12:16:56;;;;;;;7.13;1.40;;;18.60;59.20;;;;;;5112028;28;20044;-67
2023/03/15 12:19:26;;;;;;;4.57;1.33;;;18.70;59.80;;;;;;5110854;28;20051;-67
2023/03/15 12:21:55;;;;;;;;;;;19.00;61.10;;;;;;5110317;28;20051;-66
2023/03/15 12:24:25;;;;;;;5.50;1.52;;;17.70;60.90;;;;;;5110904;28;19920;-67
2023/03/15 12:27:02;;;;;;;5.97;1.33;;;17.20;62.90;;;;;;5111766;28;20491;-67
2023/03/15 12:29:31;;;;;;;5.82;1.42;;;17.50;62.00;;;;;;5110667;28;20047;-67
2023/03/15 12:32:06;;;;;;;6.35;1.88;;;17.60;61.90;;;;;;5108566;28;20055;-67
2023/03/15 12:34:48;;;;;;;7.65;1.60;;;18.10;61.70;;;;;;5099000;28;20055;-66
2023/03/15 12:37:22;;;;;;;6.30;1.58;;;18.70;60.10;;;;;;5109020;28;20130;-67
2023/03/15 12:39:50;;;;;;;8.60;2.30;;;17.30;60.00;;;;;;5109358;28;20043;-67
2023/03/15 12:43:08;;;;;;;7.03;1.80;;;16.60;61.90;;;;;;5108844;28;20134;-68
2023/03/15 12:45:40;;;;;;;5.38;1.45;;;17.50;62.10;;;;;;5083447;28;20501;-68
2023/03/15 12:48:34;;;;;;;4.88;1.30;;;17.40;60.30;;;;;;5111292;28;20052;-67
2023/03/15 12:51:42;;;;;;;5.00;1.50;;;17.40;59.60;;;;;;5070180;28;20078;-67
2023/03/15 12:54:14;;;;;;;6.25;1.52;;;18.60;59.80;;;;;;5109477;28;20134;-67
2023/03/15 12:56:44;;;;;;;7.40;1.75;;;19.00;59.80;;;;;;5109489;28;20051;-68
2023/03/15 12:59:39;;;;;;;5.22;1.77;;;19.30;60.30;;;;;;5109425;28;20054;-67
2023/03/15 13:02:26;;;;;;;5.13;1.58;;;19.20;58.30;;;;;;5109417;28;20453;-66